<?xml version="1.0" encoding="UTF-8" standalone="no" ?>
<gpx xmlns="http://www.topografix.com/GPX/1/1" xmlns:xsi="http://www.w3.org/2001/XMLSchema-instance" xsi:schemaLocation="http://www.topografix.com/GPX/1/1 http://www.topografix.com/GPX/1/1/gpx.xsd" version="1.1" creator="VisuGPX - https://www.visugpx.com">
  <metadata>
    <name>Abbaretz_MineGruellauVariante_23.1km</name>
    <desc><![CDATA[gnerando Idor: 6885808_8206575_8332675]]></desc>
  </metadata>
  <trk>
    <name><![CDATA[Abbaretz_MineEtangGruellau_20.4km-6533321]]></name>
    <extensions>
      <line xmlns="http://www.topografix.com/GPX/gpx_style/0/2">
        <color>00FFFF</color>
        <width>4</width>
      </line>
    </extensions>
    <trkseg>
      <trkpt lat="47.5539" lon="-1.53214">
        <ele>68</ele>
        <time>2023-10-29T15:42:11Z</time>
      </trkpt>
      <trkpt lat="47.554" lon="-1.53237">
        <ele>68</ele>
        <time>2023-10-29T15:42:36Z</time>
      </trkpt>
      <trkpt lat="47.55413" lon="-1.53257">
        <ele>67</ele>
        <time>2023-10-29T15:43:01Z</time>
      </trkpt>
      <trkpt lat="47.55429" lon="-1.53271">
        <ele>66</ele>
        <time>2023-10-29T15:43:25Z</time>
      </trkpt>
      <trkpt lat="47.55441" lon="-1.53293">
        <ele>66</ele>
        <time>2023-10-29T15:43:51Z</time>
      </trkpt>
      <trkpt lat="47.55469" lon="-1.5333">
        <ele>65</ele>
        <time>2023-10-29T15:44:41Z</time>
      </trkpt>
      <trkpt lat="47.55488" lon="-1.53326">
        <ele>64</ele>
        <time>2023-10-29T15:45:07Z</time>
      </trkpt>
      <trkpt lat="47.55506" lon="-1.53327">
        <ele>64</ele>
        <time>2023-10-29T15:45:31Z</time>
      </trkpt>
      <trkpt lat="47.55518" lon="-1.53347">
        <ele>64</ele>
        <time>2023-10-29T15:45:55Z</time>
      </trkpt>
      <trkpt lat="47.55518" lon="-1.53376">
        <ele>64</ele>
        <time>2023-10-29T15:46:21Z</time>
      </trkpt>
      <trkpt lat="47.55521" lon="-1.53402">
        <ele>64</ele>
        <time>2023-10-29T15:46:45Z</time>
      </trkpt>
      <trkpt lat="47.55535" lon="-1.53419">
        <ele>64</ele>
        <time>2023-10-29T15:47:09Z</time>
      </trkpt>
      <trkpt lat="47.55547" lon="-1.53439">
        <ele>63</ele>
        <time>2023-10-29T15:47:33Z</time>
      </trkpt>
      <trkpt lat="47.55547" lon="-1.53466">
        <ele>63</ele>
        <time>2023-10-29T15:47:57Z</time>
      </trkpt>
      <trkpt lat="47.55564" lon="-1.5348">
        <ele>63</ele>
        <time>2023-10-29T15:48:23Z</time>
      </trkpt>
      <trkpt lat="47.55572" lon="-1.53505">
        <ele>62</ele>
        <time>2023-10-29T15:48:48Z</time>
      </trkpt>
      <trkpt lat="47.55575" lon="-1.53562">
        <ele>61</ele>
        <time>2023-10-29T15:49:40Z</time>
      </trkpt>
      <trkpt lat="47.55584" lon="-1.53585">
        <ele>61</ele>
        <time>2023-10-29T15:50:03Z</time>
      </trkpt>
      <trkpt lat="47.556" lon="-1.536">
        <ele>61</ele>
        <time>2023-10-29T15:50:29Z</time>
      </trkpt>
      <trkpt lat="47.55658" lon="-1.53669">
        <ele>62</ele>
        <time>2023-10-29T15:52:08Z</time>
      </trkpt>
      <trkpt lat="47.5568" lon="-1.53685">
        <ele>62</ele>
        <time>2023-10-29T15:52:41Z</time>
      </trkpt>
      <trkpt lat="47.55714" lon="-1.53721">
        <ele>63</ele>
        <time>2023-10-29T15:53:36Z</time>
      </trkpt>
      <trkpt lat="47.55732" lon="-1.53725">
        <ele>63</ele>
        <time>2023-10-29T15:54:01Z</time>
      </trkpt>
      <trkpt lat="47.55767" lon="-1.53742">
        <ele>62</ele>
        <time>2023-10-29T15:54:50Z</time>
      </trkpt>
      <trkpt lat="47.55777" lon="-1.53768">
        <ele>61</ele>
        <time>2023-10-29T15:55:17Z</time>
      </trkpt>
      <trkpt lat="47.55776" lon="-1.53797">
        <ele>60</ele>
        <time>2023-10-29T15:55:43Z</time>
      </trkpt>
      <trkpt lat="47.55767" lon="-1.53851">
        <ele>60</ele>
        <time>2023-10-29T15:56:33Z</time>
      </trkpt>
      <trkpt lat="47.55757" lon="-1.53873">
        <ele>61</ele>
        <time>2023-10-29T15:56:57Z</time>
      </trkpt>
      <trkpt lat="47.55751" lon="-1.53899">
        <ele>62</ele>
        <time>2023-10-29T15:57:22Z</time>
      </trkpt>
      <trkpt lat="47.55752" lon="-1.53926">
        <ele>62</ele>
        <time>2023-10-29T15:57:46Z</time>
      </trkpt>
      <trkpt lat="47.55756" lon="-1.53953">
        <ele>62</ele>
        <time>2023-10-29T15:58:11Z</time>
      </trkpt>
      <trkpt lat="47.55768" lon="-1.53975">
        <ele>63</ele>
        <time>2023-10-29T15:58:36Z</time>
      </trkpt>
      <trkpt lat="47.55775" lon="-1.54001">
        <ele>63</ele>
        <time>2023-10-29T15:59:02Z</time>
      </trkpt>
      <trkpt lat="47.55778" lon="-1.54028">
        <ele>62</ele>
        <time>2023-10-29T15:59:26Z</time>
      </trkpt>
      <trkpt lat="47.55789" lon="-1.54081">
        <ele>61</ele>
        <time>2023-10-29T16:00:16Z</time>
      </trkpt>
      <trkpt lat="47.558" lon="-1.54104">
        <ele>60</ele>
        <time>2023-10-29T16:00:42Z</time>
      </trkpt>
      <trkpt lat="47.55804" lon="-1.5413">
        <ele>59</ele>
        <time>2023-10-29T16:01:06Z</time>
      </trkpt>
      <trkpt lat="47.558" lon="-1.54156">
        <ele>59</ele>
        <time>2023-10-29T16:01:30Z</time>
      </trkpt>
      <trkpt lat="47.55835" lon="-1.54169">
        <ele>57</ele>
        <time>2023-10-29T16:02:18Z</time>
      </trkpt>
      <trkpt lat="47.55909" lon="-1.54188">
        <ele>57</ele>
        <time>2023-10-29T16:03:58Z</time>
      </trkpt>
      <trkpt lat="47.55922" lon="-1.54209">
        <ele>58</ele>
        <time>2023-10-29T16:04:24Z</time>
      </trkpt>
      <trkpt lat="47.5594" lon="-1.54209">
        <ele>60</ele>
        <time>2023-10-29T16:04:48Z</time>
      </trkpt>
      <trkpt lat="47.55975" lon="-1.54192">
        <ele>61</ele>
        <time>2023-10-29T16:05:37Z</time>
      </trkpt>
      <trkpt lat="47.55993" lon="-1.54194">
        <ele>63</ele>
        <time>2023-10-29T16:06:01Z</time>
      </trkpt>
      <trkpt lat="47.5598" lon="-1.54212">
        <ele>64</ele>
        <time>2023-10-29T16:06:25Z</time>
      </trkpt>
      <trkpt lat="47.55963" lon="-1.54224">
        <ele>63</ele>
        <time>2023-10-29T16:06:50Z</time>
      </trkpt>
      <trkpt lat="47.55974" lon="-1.54246">
        <ele>67</ele>
        <time>2023-10-29T16:07:14Z</time>
      </trkpt>
      <trkpt lat="47.55992" lon="-1.54252">
        <ele>70</ele>
        <time>2023-10-29T16:07:39Z</time>
      </trkpt>
      <trkpt lat="47.56025" lon="-1.54275">
        <ele>73</ele>
        <time>2023-10-29T16:08:28Z</time>
      </trkpt>
      <trkpt lat="47.5604" lon="-1.54291">
        <ele>76</ele>
        <time>2023-10-29T16:08:52Z</time>
      </trkpt>
      <trkpt lat="47.56057" lon="-1.54304">
        <ele>79</ele>
        <time>2023-10-29T16:09:18Z</time>
      </trkpt>
      <trkpt lat="47.56074" lon="-1.54313">
        <ele>83</ele>
        <time>2023-10-29T16:09:42Z</time>
      </trkpt>
      <trkpt lat="47.5614" lon="-1.54364">
        <ele>84</ele>
        <time>2023-10-29T16:11:21Z</time>
      </trkpt>
      <trkpt lat="47.5601" lon="-1.54258">
        <ele>72</ele>
        <time>2023-10-29T16:14:39Z</time>
      </trkpt>
      <trkpt lat="47.55992" lon="-1.54254">
        <ele>70</ele>
        <time>2023-10-29T16:15:04Z</time>
      </trkpt>
      <trkpt lat="47.55975" lon="-1.54242">
        <ele>67</ele>
        <time>2023-10-29T16:15:29Z</time>
      </trkpt>
      <trkpt lat="47.55957" lon="-1.54238">
        <ele>64</ele>
        <time>2023-10-29T16:15:53Z</time>
      </trkpt>
      <trkpt lat="47.55972" lon="-1.5422">
        <ele>64</ele>
        <time>2023-10-29T16:16:19Z</time>
      </trkpt>
      <trkpt lat="47.55989" lon="-1.5421">
        <ele>65</ele>
        <time>2023-10-29T16:16:43Z</time>
      </trkpt>
      <trkpt lat="47.55992" lon="-1.54183">
        <ele>62</ele>
        <time>2023-10-29T16:17:08Z</time>
      </trkpt>
      <trkpt lat="47.55974" lon="-1.54176">
        <ele>60</ele>
        <time>2023-10-29T16:17:33Z</time>
      </trkpt>
      <trkpt lat="47.55956" lon="-1.54173">
        <ele>58</ele>
        <time>2023-10-29T16:17:57Z</time>
      </trkpt>
      <trkpt lat="47.5594" lon="-1.54186">
        <ele>58</ele>
        <time>2023-10-29T16:18:21Z</time>
      </trkpt>
      <trkpt lat="47.55927" lon="-1.54205">
        <ele>58</ele>
        <time>2023-10-29T16:18:46Z</time>
      </trkpt>
      <trkpt lat="47.55927" lon="-1.54232">
        <ele>60</ele>
        <time>2023-10-29T16:19:10Z</time>
      </trkpt>
      <trkpt lat="47.55931" lon="-1.54259">
        <ele>61</ele>
        <time>2023-10-29T16:19:35Z</time>
      </trkpt>
      <trkpt lat="47.55938" lon="-1.54285">
        <ele>62</ele>
        <time>2023-10-29T16:20:00Z</time>
      </trkpt>
      <trkpt lat="47.5594" lon="-1.54341">
        <ele>61</ele>
        <time>2023-10-29T16:20:51Z</time>
      </trkpt>
      <trkpt lat="47.55926" lon="-1.54358">
        <ele>60</ele>
        <time>2023-10-29T16:21:15Z</time>
      </trkpt>
      <trkpt lat="47.5592" lon="-1.54384">
        <ele>59</ele>
        <time>2023-10-29T16:21:39Z</time>
      </trkpt>
      <trkpt lat="47.55914" lon="-1.54464">
        <ele>58</ele>
        <time>2023-10-29T16:22:52Z</time>
      </trkpt>
      <trkpt lat="47.55914" lon="-1.54491">
        <ele>57</ele>
        <time>2023-10-29T16:23:16Z</time>
      </trkpt>
      <trkpt lat="47.55909" lon="-1.54518">
        <ele>58</ele>
        <time>2023-10-29T16:23:41Z</time>
      </trkpt>
      <trkpt lat="47.55911" lon="-1.54544">
        <ele>58</ele>
        <time>2023-10-29T16:24:05Z</time>
      </trkpt>
      <trkpt lat="47.55908" lon="-1.54572">
        <ele>58</ele>
        <time>2023-10-29T16:24:31Z</time>
      </trkpt>
      <trkpt lat="47.55912" lon="-1.54626">
        <ele>57</ele>
        <time>2023-10-29T16:25:19Z</time>
      </trkpt>
      <trkpt lat="47.5593" lon="-1.54626">
        <ele>55</ele>
        <time>2023-10-29T16:25:43Z</time>
      </trkpt>
      <trkpt lat="47.55949" lon="-1.54631">
        <ele>54</ele>
        <time>2023-10-29T16:26:09Z</time>
      </trkpt>
      <trkpt lat="47.55967" lon="-1.5463">
        <ele>53</ele>
        <time>2023-10-29T16:26:33Z</time>
      </trkpt>
      <trkpt lat="47.55984" lon="-1.54618">
        <ele>51</ele>
        <time>2023-10-29T16:26:58Z</time>
      </trkpt>
      <trkpt lat="47.55999" lon="-1.54602">
        <ele>50</ele>
        <time>2023-10-29T16:27:23Z</time>
      </trkpt>
      <trkpt lat="47.56017" lon="-1.54599">
        <ele>50</ele>
        <time>2023-10-29T16:27:47Z</time>
      </trkpt>
      <trkpt lat="47.56051" lon="-1.54575">
        <ele>50</ele>
        <time>2023-10-29T16:28:38Z</time>
      </trkpt>
      <trkpt lat="47.56089" lon="-1.54576">
        <ele>50</ele>
        <time>2023-10-29T16:29:28Z</time>
      </trkpt>
      <trkpt lat="47.56104" lon="-1.54591">
        <ele>49</ele>
        <time>2023-10-29T16:29:52Z</time>
      </trkpt>
      <trkpt lat="47.56122" lon="-1.54597">
        <ele>49</ele>
        <time>2023-10-29T16:30:17Z</time>
      </trkpt>
      <trkpt lat="47.56156" lon="-1.54577">
        <ele>51</ele>
        <time>2023-10-29T16:31:06Z</time>
      </trkpt>
      <trkpt lat="47.56211" lon="-1.54561">
        <ele>51</ele>
        <time>2023-10-29T16:32:21Z</time>
      </trkpt>
      <trkpt lat="47.56229" lon="-1.5455">
        <ele>50</ele>
        <time>2023-10-29T16:32:47Z</time>
      </trkpt>
      <trkpt lat="47.56247" lon="-1.54547">
        <ele>49</ele>
        <time>2023-10-29T16:33:11Z</time>
      </trkpt>
      <trkpt lat="47.56265" lon="-1.54538">
        <ele>48</ele>
        <time>2023-10-29T16:33:36Z</time>
      </trkpt>
      <trkpt lat="47.56281" lon="-1.54524">
        <ele>48</ele>
        <time>2023-10-29T16:34:01Z</time>
      </trkpt>
      <trkpt lat="47.56308" lon="-1.54486">
        <ele>48</ele>
        <time>2023-10-29T16:34:51Z</time>
      </trkpt>
      <trkpt lat="47.56325" lon="-1.54478">
        <ele>46</ele>
        <time>2023-10-29T16:35:14Z</time>
      </trkpt>
      <trkpt lat="47.56344" lon="-1.54475">
        <ele>45</ele>
        <time>2023-10-29T16:35:40Z</time>
      </trkpt>
      <trkpt lat="47.56365" lon="-1.54431">
        <ele>44</ele>
        <time>2023-10-29T16:36:28Z</time>
      </trkpt>
      <trkpt lat="47.56374" lon="-1.54406">
        <ele>44</ele>
        <time>2023-10-29T16:36:54Z</time>
      </trkpt>
      <trkpt lat="47.56368" lon="-1.54381">
        <ele>45</ele>
        <time>2023-10-29T16:37:18Z</time>
      </trkpt>
      <trkpt lat="47.56377" lon="-1.54356">
        <ele>45</ele>
        <time>2023-10-29T16:37:43Z</time>
      </trkpt>
      <trkpt lat="47.5644" lon="-1.54298">
        <ele>43</ele>
        <time>2023-10-29T16:39:22Z</time>
      </trkpt>
      <trkpt lat="47.56449" lon="-1.54274">
        <ele>43</ele>
        <time>2023-10-29T16:39:47Z</time>
      </trkpt>
      <trkpt lat="47.56452" lon="-1.54219">
        <ele>42</ele>
        <time>2023-10-29T16:40:37Z</time>
      </trkpt>
      <trkpt lat="47.56436" lon="-1.54206">
        <ele>43</ele>
        <time>2023-10-29T16:41:01Z</time>
      </trkpt>
      <trkpt lat="47.56443" lon="-1.54181">
        <ele>42</ele>
        <time>2023-10-29T16:41:25Z</time>
      </trkpt>
      <trkpt lat="47.56477" lon="-1.54161">
        <ele>42</ele>
        <time>2023-10-29T16:42:14Z</time>
      </trkpt>
      <trkpt lat="47.56523" lon="-1.54116">
        <ele>41</ele>
        <time>2023-10-29T16:43:28Z</time>
      </trkpt>
      <trkpt lat="47.56526" lon="-1.54062">
        <ele>42</ele>
        <time>2023-10-29T16:44:17Z</time>
      </trkpt>
      <trkpt lat="47.56522" lon="-1.53977">
        <ele>44</ele>
        <time>2023-10-29T16:45:33Z</time>
      </trkpt>
      <trkpt lat="47.56525" lon="-1.5395">
        <ele>45</ele>
        <time>2023-10-29T16:45:58Z</time>
      </trkpt>
      <trkpt lat="47.56527" lon="-1.53868">
        <ele>47</ele>
        <time>2023-10-29T16:47:12Z</time>
      </trkpt>
      <trkpt lat="47.56532" lon="-1.53813">
        <ele>47</ele>
        <time>2023-10-29T16:48:02Z</time>
      </trkpt>
      <trkpt lat="47.56529" lon="-1.53786">
        <ele>47</ele>
        <time>2023-10-29T16:48:26Z</time>
      </trkpt>
      <trkpt lat="47.5653" lon="-1.53758">
        <ele>47</ele>
        <time>2023-10-29T16:48:52Z</time>
      </trkpt>
      <trkpt lat="47.56526" lon="-1.53731">
        <ele>46</ele>
        <time>2023-10-29T16:49:17Z</time>
      </trkpt>
      <trkpt lat="47.5651" lon="-1.5372">
        <ele>47</ele>
        <time>2023-10-29T16:49:40Z</time>
      </trkpt>
      <trkpt lat="47.56456" lon="-1.53697">
        <ele>48</ele>
        <time>2023-10-29T16:50:55Z</time>
      </trkpt>
      <trkpt lat="47.56454" lon="-1.5367">
        <ele>47</ele>
        <time>2023-10-29T16:51:20Z</time>
      </trkpt>
      <trkpt lat="47.56458" lon="-1.53697">
        <ele>48</ele>
        <time>2023-10-29T16:51:44Z</time>
      </trkpt>
      <trkpt lat="47.56475" lon="-1.53706">
        <ele>48</ele>
        <time>2023-10-29T16:52:09Z</time>
      </trkpt>
      <trkpt lat="47.56457" lon="-1.53698">
        <ele>48</ele>
        <time>2023-10-29T16:52:34Z</time>
      </trkpt>
      <trkpt lat="47.56452" lon="-1.53673">
        <ele>47</ele>
        <time>2023-10-29T16:52:57Z</time>
      </trkpt>
      <trkpt lat="47.5646" lon="-1.53647">
        <ele>46</ele>
        <time>2023-10-29T16:53:23Z</time>
      </trkpt>
      <trkpt lat="47.56501" lon="-1.5346">
        <ele>42</ele>
        <time>2023-10-29T16:56:20Z</time>
      </trkpt>
      <trkpt lat="47.56509" lon="-1.53435">
        <ele>41</ele>
        <time>2023-10-29T16:56:45Z</time>
      </trkpt>
      <trkpt lat="47.56529" lon="-1.53303">
        <ele>41</ele>
        <time>2023-10-29T16:58:47Z</time>
      </trkpt>
      <trkpt lat="47.56535" lon="-1.53276">
        <ele>41</ele>
        <time>2023-10-29T16:59:12Z</time>
      </trkpt>
      <trkpt lat="47.56534" lon="-1.5322">
        <ele>40</ele>
        <time>2023-10-29T17:00:03Z</time>
      </trkpt>
      <trkpt lat="47.56528" lon="-1.53167">
        <ele>39</ele>
        <time>2023-10-29T17:00:51Z</time>
      </trkpt>
      <trkpt lat="47.5654" lon="-1.53146">
        <ele>39</ele>
        <time>2023-10-29T17:01:16Z</time>
      </trkpt>
      <trkpt lat="47.56557" lon="-1.53156">
        <ele>39</ele>
        <time>2023-10-29T17:01:40Z</time>
      </trkpt>
      <trkpt lat="47.56576" lon="-1.5316">
        <ele>39</ele>
        <time>2023-10-29T17:02:06Z</time>
      </trkpt>
      <trkpt lat="47.56612" lon="-1.53178">
        <ele>38</ele>
        <time>2023-10-29T17:02:57Z</time>
      </trkpt>
      <trkpt lat="47.56625" lon="-1.53199">
        <ele>38</ele>
        <time>2023-10-29T17:03:22Z</time>
      </trkpt>
      <trkpt lat="47.56644" lon="-1.53248">
        <ele>38</ele>
        <time>2023-10-29T17:04:13Z</time>
      </trkpt>
      <trkpt lat="47.56755" lon="-1.53565">
        <ele>37</ele>
        <time>2023-10-29T17:09:35Z</time>
      </trkpt>
      <trkpt lat="47.56776" lon="-1.53609">
        <ele>37</ele>
        <time>2023-10-29T17:10:23Z</time>
      </trkpt>
      <trkpt lat="47.56905" lon="-1.53634">
        <ele>36</ele>
        <time>2023-10-29T17:13:17Z</time>
      </trkpt>
      <trkpt lat="47.56941" lon="-1.53639">
        <ele>36</ele>
        <time>2023-10-29T17:14:05Z</time>
      </trkpt>
      <trkpt lat="47.56959" lon="-1.53647">
        <ele>35</ele>
        <time>2023-10-29T17:14:30Z</time>
      </trkpt>
      <trkpt lat="47.5709" lon="-1.53753">
        <ele>35</ele>
        <time>2023-10-29T17:17:49Z</time>
      </trkpt>
      <trkpt lat="47.57138" lon="-1.53795">
        <ele>34</ele>
        <time>2023-10-29T17:19:04Z</time>
      </trkpt>
      <trkpt lat="47.57153" lon="-1.53811">
        <ele>34</ele>
        <time>2023-10-29T17:19:28Z</time>
      </trkpt>
      <trkpt lat="47.57187" lon="-1.53837">
        <ele>34</ele>
        <time>2023-10-29T17:20:19Z</time>
      </trkpt>
      <trkpt lat="47.57201" lon="-1.53855">
        <ele>35</ele>
        <time>2023-10-29T17:20:44Z</time>
      </trkpt>
      <trkpt lat="47.57207" lon="-1.53881">
        <ele>34</ele>
        <time>2023-10-29T17:21:09Z</time>
      </trkpt>
      <trkpt lat="47.57221" lon="-1.53901">
        <ele>34</ele>
        <time>2023-10-29T17:21:35Z</time>
      </trkpt>
      <trkpt lat="47.57237" lon="-1.53916">
        <ele>35</ele>
        <time>2023-10-29T17:22:00Z</time>
      </trkpt>
      <trkpt lat="47.5725" lon="-1.53934">
        <ele>35</ele>
        <time>2023-10-29T17:22:24Z</time>
      </trkpt>
      <trkpt lat="47.57265" lon="-1.53949">
        <ele>34</ele>
        <time>2023-10-29T17:22:48Z</time>
      </trkpt>
      <trkpt lat="47.57282" lon="-1.53961">
        <ele>34</ele>
        <time>2023-10-29T17:23:13Z</time>
      </trkpt>
      <trkpt lat="47.57329" lon="-1.54009">
        <ele>34</ele>
        <time>2023-10-29T17:24:29Z</time>
      </trkpt>
      <trkpt lat="47.57416" lon="-1.54111">
        <ele>33</ele>
        <time>2023-10-29T17:26:57Z</time>
      </trkpt>
      <trkpt lat="47.57433" lon="-1.54117">
        <ele>34</ele>
        <time>2023-10-29T17:27:21Z</time>
      </trkpt>
      <trkpt lat="47.5747" lon="-1.54124">
        <ele>35</ele>
        <time>2023-10-29T17:28:10Z</time>
      </trkpt>
      <trkpt lat="47.57508" lon="-1.54128">
        <ele>36</ele>
        <time>2023-10-29T17:29:01Z</time>
      </trkpt>
      <trkpt lat="47.57544" lon="-1.54137">
        <ele>37</ele>
        <time>2023-10-29T17:29:50Z</time>
      </trkpt>
      <trkpt lat="47.57636" lon="-1.54148">
        <ele>38</ele>
        <time>2023-10-29T17:31:53Z</time>
      </trkpt>
      <trkpt lat="47.57673" lon="-1.5414">
        <ele>38</ele>
        <time>2023-10-29T17:32:43Z</time>
      </trkpt>
      <trkpt lat="47.57728" lon="-1.5412">
        <ele>39</ele>
        <time>2023-10-29T17:33:59Z</time>
      </trkpt>
      <trkpt lat="47.57784" lon="-1.54119">
        <ele>41</ele>
        <time>2023-10-29T17:35:13Z</time>
      </trkpt>
      <trkpt lat="47.57802" lon="-1.54121">
        <ele>42</ele>
        <time>2023-10-29T17:35:37Z</time>
      </trkpt>
      <trkpt lat="47.57839" lon="-1.5413">
        <ele>43</ele>
        <time>2023-10-29T17:36:27Z</time>
      </trkpt>
      <trkpt lat="47.57856" lon="-1.54131">
        <ele>43</ele>
        <time>2023-10-29T17:36:50Z</time>
      </trkpt>
      <trkpt lat="47.57874" lon="-1.54124">
        <ele>42</ele>
        <time>2023-10-29T17:37:15Z</time>
      </trkpt>
      <trkpt lat="47.57864" lon="-1.54147">
        <ele>42</ele>
        <time>2023-10-29T17:37:40Z</time>
      </trkpt>
      <trkpt lat="47.57869" lon="-1.54201">
        <ele>42</ele>
        <time>2023-10-29T17:38:29Z</time>
      </trkpt>
      <trkpt lat="47.57874" lon="-1.54228">
        <ele>42</ele>
        <time>2023-10-29T17:38:54Z</time>
      </trkpt>
      <trkpt lat="47.57907" lon="-1.54356">
        <ele>41</ele>
        <time>2023-10-29T17:40:57Z</time>
      </trkpt>
      <trkpt lat="47.5791" lon="-1.54383">
        <ele>41</ele>
        <time>2023-10-29T17:41:22Z</time>
      </trkpt>
      <trkpt lat="47.57919" lon="-1.54407">
        <ele>42</ele>
        <time>2023-10-29T17:41:47Z</time>
      </trkpt>
      <trkpt lat="47.57955" lon="-1.54411">
        <ele>41</ele>
        <time>2023-10-29T17:42:35Z</time>
      </trkpt>
      <trkpt lat="47.57975" lon="-1.5441">
        <ele>40</ele>
        <time>2023-10-29T17:43:01Z</time>
      </trkpt>
      <trkpt lat="47.57991" lon="-1.54399">
        <ele>40</ele>
        <time>2023-10-29T17:43:25Z</time>
      </trkpt>
      <trkpt lat="47.58009" lon="-1.54395">
        <ele>39</ele>
        <time>2023-10-29T17:43:49Z</time>
      </trkpt>
      <trkpt lat="47.58082" lon="-1.54414">
        <ele>38</ele>
        <time>2023-10-29T17:45:28Z</time>
      </trkpt>
      <trkpt lat="47.58226" lon="-1.54464">
        <ele>33</ele>
        <time>2023-10-29T17:48:46Z</time>
      </trkpt>
      <trkpt lat="47.58244" lon="-1.54457">
        <ele>33</ele>
        <time>2023-10-29T17:49:10Z</time>
      </trkpt>
      <trkpt lat="47.58268" lon="-1.54414">
        <ele>33</ele>
        <time>2023-10-29T17:50:01Z</time>
      </trkpt>
      <trkpt lat="47.58286" lon="-1.54416">
        <ele>32</ele>
        <time>2023-10-29T17:50:25Z</time>
      </trkpt>
      <trkpt lat="47.58269" lon="-1.54407">
        <ele>32</ele>
        <time>2023-10-29T17:50:49Z</time>
      </trkpt>
      <trkpt lat="47.58288" lon="-1.54329">
        <ele>32</ele>
        <time>2023-10-29T17:52:03Z</time>
      </trkpt>
      <trkpt lat="47.58302" lon="-1.5431">
        <ele>31</ele>
        <time>2023-10-29T17:52:29Z</time>
      </trkpt>
      <trkpt lat="47.58319" lon="-1.54304">
        <ele>31</ele>
        <time>2023-10-29T17:52:52Z</time>
      </trkpt>
      <trkpt lat="47.5833" lon="-1.54252">
        <ele>31</ele>
        <time>2023-10-29T17:53:41Z</time>
      </trkpt>
      <trkpt lat="47.58346" lon="-1.54239">
        <ele>31</ele>
        <time>2023-10-29T17:54:05Z</time>
      </trkpt>
      <trkpt lat="47.58363" lon="-1.54249">
        <ele>30</ele>
        <time>2023-10-29T17:54:30Z</time>
      </trkpt>
      <trkpt lat="47.58367" lon="-1.54275">
        <ele>30</ele>
        <time>2023-10-29T17:54:54Z</time>
      </trkpt>
      <trkpt lat="47.58381" lon="-1.54295">
        <ele>30</ele>
        <time>2023-10-29T17:55:20Z</time>
      </trkpt>
      <trkpt lat="47.58435" lon="-1.54319">
        <ele>29</ele>
        <time>2023-10-29T17:56:35Z</time>
      </trkpt>
      <trkpt lat="47.5851" lon="-1.54335">
        <ele>27</ele>
        <time>2023-10-29T17:58:16Z</time>
      </trkpt>
      <trkpt lat="47.58528" lon="-1.54329">
        <ele>27</ele>
        <time>2023-10-29T17:58:41Z</time>
      </trkpt>
      <trkpt lat="47.58545" lon="-1.54319">
        <ele>27</ele>
        <time>2023-10-29T17:59:05Z</time>
      </trkpt>
      <trkpt lat="47.58601" lon="-1.54319">
        <ele>27</ele>
        <time>2023-10-29T18:00:20Z</time>
      </trkpt>
      <trkpt lat="47.58584" lon="-1.54327">
        <ele>27</ele>
        <time>2023-10-29T18:00:44Z</time>
      </trkpt>
      <trkpt lat="47.58546" lon="-1.54325">
        <ele>27</ele>
        <time>2023-10-29T18:01:34Z</time>
      </trkpt>
      <trkpt lat="47.58528" lon="-1.54328">
        <ele>27</ele>
        <time>2023-10-29T18:01:59Z</time>
      </trkpt>
      <trkpt lat="47.58513" lon="-1.54343">
        <ele>27</ele>
        <time>2023-10-29T18:02:23Z</time>
      </trkpt>
      <trkpt lat="47.585" lon="-1.54363">
        <ele>27</ele>
        <time>2023-10-29T18:02:48Z</time>
      </trkpt>
      <trkpt lat="47.58502" lon="-1.54391">
        <ele>28</ele>
        <time>2023-10-29T18:03:13Z</time>
      </trkpt>
      <trkpt lat="47.58518" lon="-1.54497">
        <ele>27</ele>
        <time>2023-10-29T18:04:51Z</time>
      </trkpt>
      <trkpt lat="47.58529" lon="-1.54551">
        <ele>27</ele>
        <time>2023-10-29T18:05:42Z</time>
      </trkpt>
      <trkpt lat="47.58553" lon="-1.54714">
        <ele>28</ele>
        <time>2023-10-29T18:08:12Z</time>
      </trkpt>
      <trkpt lat="47.58567" lon="-1.54794">
        <ele>29</ele>
        <time>2023-10-29T18:09:26Z</time>
      </trkpt>
      <trkpt lat="47.58578" lon="-1.54815">
        <ele>29</ele>
        <time>2023-10-29T18:09:50Z</time>
      </trkpt>
      <trkpt lat="47.58596" lon="-1.54817">
        <ele>29</ele>
        <time>2023-10-29T18:10:14Z</time>
      </trkpt>
      <trkpt lat="47.58614" lon="-1.54806">
        <ele>28</ele>
        <time>2023-10-29T18:10:40Z</time>
      </trkpt>
      <trkpt lat="47.58669" lon="-1.54789">
        <ele>26</ele>
        <time>2023-10-29T18:11:55Z</time>
      </trkpt>
      <trkpt lat="47.58688" lon="-1.5478">
        <ele>26</ele>
        <time>2023-10-29T18:12:22Z</time>
      </trkpt>
      <trkpt lat="47.58724" lon="-1.54774">
        <ele>26</ele>
        <time>2023-10-29T18:13:10Z</time>
      </trkpt>
      <trkpt lat="47.58743" lon="-1.54766">
        <ele>26</ele>
        <time>2023-10-29T18:13:37Z</time>
      </trkpt>
      <trkpt lat="47.58761" lon="-1.54764">
        <ele>26</ele>
        <time>2023-10-29T18:14:01Z</time>
      </trkpt>
      <trkpt lat="47.58798" lon="-1.54751">
        <ele>26</ele>
        <time>2023-10-29T18:14:51Z</time>
      </trkpt>
      <trkpt lat="47.58872" lon="-1.54732">
        <ele>26</ele>
        <time>2023-10-29T18:16:32Z</time>
      </trkpt>
      <trkpt lat="47.5896" lon="-1.5469">
        <ele>25</ele>
        <time>2023-10-29T18:18:35Z</time>
      </trkpt>
      <trkpt lat="47.59013" lon="-1.5466">
        <ele>25</ele>
        <time>2023-10-29T18:19:51Z</time>
      </trkpt>
      <trkpt lat="47.5903" lon="-1.54669">
        <ele>25</ele>
        <time>2023-10-29T18:20:15Z</time>
      </trkpt>
      <trkpt lat="47.59111" lon="-1.54853">
        <ele>24</ele>
        <time>2023-10-29T18:23:33Z</time>
      </trkpt>
      <trkpt lat="47.59123" lon="-1.54873">
        <ele>25</ele>
        <time>2023-10-29T18:23:57Z</time>
      </trkpt>
      <trkpt lat="47.59141" lon="-1.54874">
        <ele>25</ele>
        <time>2023-10-29T18:24:21Z</time>
      </trkpt>
      <trkpt lat="47.5922" lon="-1.54801">
        <ele>24</ele>
        <time>2023-10-29T18:26:25Z</time>
      </trkpt>
      <trkpt lat="47.59238" lon="-1.54798">
        <ele>24</ele>
        <time>2023-10-29T18:26:49Z</time>
      </trkpt>
      <trkpt lat="47.59274" lon="-1.54787">
        <ele>25</ele>
        <time>2023-10-29T18:27:38Z</time>
      </trkpt>
      <trkpt lat="47.59291" lon="-1.54776">
        <ele>25</ele>
        <time>2023-10-29T18:28:03Z</time>
      </trkpt>
      <trkpt lat="47.59318" lon="-1.54738">
        <ele>25</ele>
        <time>2023-10-29T18:28:53Z</time>
      </trkpt>
      <trkpt lat="47.59325" lon="-1.54712">
        <ele>25</ele>
        <time>2023-10-29T18:29:18Z</time>
      </trkpt>
      <trkpt lat="47.59357" lon="-1.54683">
        <ele>25</ele>
        <time>2023-10-29T18:30:08Z</time>
      </trkpt>
      <trkpt lat="47.59422" lon="-1.5463">
        <ele>26</ele>
        <time>2023-10-29T18:31:47Z</time>
      </trkpt>
      <trkpt lat="47.59556" lon="-1.54528">
        <ele>25</ele>
        <time>2023-10-29T18:35:08Z</time>
      </trkpt>
      <trkpt lat="47.59572" lon="-1.54513">
        <ele>26</ele>
        <time>2023-10-29T18:35:33Z</time>
      </trkpt>
      <trkpt lat="47.5959" lon="-1.54504">
        <ele>26</ele>
        <time>2023-10-29T18:35:58Z</time>
      </trkpt>
      <trkpt lat="47.59657" lon="-1.54455">
        <ele>27</ele>
        <time>2023-10-29T18:37:38Z</time>
      </trkpt>
      <trkpt lat="47.59706" lon="-1.54413">
        <ele>29</ele>
        <time>2023-10-29T18:38:54Z</time>
      </trkpt>
      <trkpt lat="47.59853" lon="-1.543">
        <ele>28</ele>
        <time>2023-10-29T18:42:35Z</time>
      </trkpt>
      <trkpt lat="47.59888" lon="-1.5428">
        <ele>27</ele>
        <time>2023-10-29T18:43:25Z</time>
      </trkpt>
      <trkpt lat="47.59907" lon="-1.54283">
        <ele>27</ele>
        <time>2023-10-29T18:43:50Z</time>
      </trkpt>
      <trkpt lat="47.60018" lon="-1.54271">
        <ele>27</ele>
        <time>2023-10-29T18:46:19Z</time>
      </trkpt>
      <trkpt lat="47.60029" lon="-1.54249">
        <ele>27</ele>
        <time>2023-10-29T18:46:43Z</time>
      </trkpt>
      <trkpt lat="47.60057" lon="-1.54147">
        <ele>27</ele>
        <time>2023-10-29T18:48:22Z</time>
      </trkpt>
      <trkpt lat="47.6011" lon="-1.53969">
        <ele>26</ele>
        <time>2023-10-29T18:51:17Z</time>
      </trkpt>
      <trkpt lat="47.60127" lon="-1.53919">
        <ele>26</ele>
        <time>2023-10-29T18:52:08Z</time>
      </trkpt>
      <trkpt lat="47.60192" lon="-1.53692">
        <ele>26</ele>
        <time>2023-10-29T18:55:50Z</time>
      </trkpt>
      <trkpt lat="47.60201" lon="-1.53667">
        <ele>26</ele>
        <time>2023-10-29T18:56:15Z</time>
      </trkpt>
      <trkpt lat="47.60228" lon="-1.53564">
        <ele>28</ele>
        <time>2023-10-29T18:57:55Z</time>
      </trkpt>
      <trkpt lat="47.60246" lon="-1.53516">
        <ele>27</ele>
        <time>2023-10-29T18:58:44Z</time>
      </trkpt>
      <trkpt lat="47.60271" lon="-1.53412">
        <ele>29</ele>
        <time>2023-10-29T19:00:23Z</time>
      </trkpt>
      <trkpt lat="47.60275" lon="-1.53385">
        <ele>29</ele>
        <time>2023-10-29T19:00:48Z</time>
      </trkpt>
      <trkpt lat="47.60306" lon="-1.53316">
        <ele>29</ele>
        <time>2023-10-29T19:02:03Z</time>
      </trkpt>
      <trkpt lat="47.6032" lon="-1.53297">
        <ele>28</ele>
        <time>2023-10-29T19:02:28Z</time>
      </trkpt>
      <trkpt lat="47.60353" lon="-1.53231">
        <ele>26</ele>
        <time>2023-10-29T19:03:42Z</time>
      </trkpt>
      <trkpt lat="47.60367" lon="-1.53212">
        <ele>26</ele>
        <time>2023-10-29T19:04:07Z</time>
      </trkpt>
      <trkpt lat="47.60377" lon="-1.5319">
        <ele>26</ele>
        <time>2023-10-29T19:04:31Z</time>
      </trkpt>
      <trkpt lat="47.60416" lon="-1.5313">
        <ele>27</ele>
        <time>2023-10-29T19:05:46Z</time>
      </trkpt>
      <trkpt lat="47.60449" lon="-1.53064">
        <ele>27</ele>
        <time>2023-10-29T19:07:00Z</time>
      </trkpt>
      <trkpt lat="47.60452" lon="-1.53009">
        <ele>27</ele>
        <time>2023-10-29T19:07:50Z</time>
      </trkpt>
      <trkpt lat="47.60456" lon="-1.52982">
        <ele>27</ele>
        <time>2023-10-29T19:08:15Z</time>
      </trkpt>
      <trkpt lat="47.60456" lon="-1.52899">
        <ele>28</ele>
        <time>2023-10-29T19:09:29Z</time>
      </trkpt>
      <trkpt lat="47.60451" lon="-1.52844">
        <ele>27</ele>
        <time>2023-10-29T19:10:19Z</time>
      </trkpt>
      <trkpt lat="47.60453" lon="-1.52816">
        <ele>27</ele>
        <time>2023-10-29T19:10:45Z</time>
      </trkpt>
      <trkpt lat="47.60447" lon="-1.5279">
        <ele>27</ele>
        <time>2023-10-29T19:11:09Z</time>
      </trkpt>
      <trkpt lat="47.60423" lon="-1.52748">
        <ele>28</ele>
        <time>2023-10-29T19:11:59Z</time>
      </trkpt>
      <trkpt lat="47.6041" lon="-1.52729">
        <ele>28</ele>
        <time>2023-10-29T19:12:23Z</time>
      </trkpt>
      <trkpt lat="47.60394" lon="-1.52718">
        <ele>28</ele>
        <time>2023-10-29T19:12:47Z</time>
      </trkpt>
      <trkpt lat="47.60372" lon="-1.52673">
        <ele>28</ele>
        <time>2023-10-29T19:13:37Z</time>
      </trkpt>
      <trkpt lat="47.60358" lon="-1.52655">
        <ele>28</ele>
        <time>2023-10-29T19:14:02Z</time>
      </trkpt>
      <trkpt lat="47.60352" lon="-1.52629">
        <ele>29</ele>
        <time>2023-10-29T19:14:26Z</time>
      </trkpt>
      <trkpt lat="47.60357" lon="-1.52621">
        <ele>29</ele>
        <time>2023-10-29T19:14:36Z</time>
      </trkpt>
      <trkpt lat="47.6035" lon="-1.52646">
        <ele>29</ele>
        <time>2023-10-29T19:15:01Z</time>
      </trkpt>
      <trkpt lat="47.60333" lon="-1.52655">
        <ele>28</ele>
        <time>2023-10-29T19:15:25Z</time>
      </trkpt>
      <trkpt lat="47.60317" lon="-1.52642">
        <ele>29</ele>
        <time>2023-10-29T19:15:49Z</time>
      </trkpt>
      <trkpt lat="47.60266" lon="-1.52677">
        <ele>28</ele>
        <time>2023-10-29T19:17:04Z</time>
      </trkpt>
      <trkpt lat="47.60251" lon="-1.52696">
        <ele>27</ele>
        <time>2023-10-29T19:17:30Z</time>
      </trkpt>
      <trkpt lat="47.60239" lon="-1.52716">
        <ele>27</ele>
        <time>2023-10-29T19:17:54Z</time>
      </trkpt>
      <trkpt lat="47.60224" lon="-1.52732">
        <ele>27</ele>
        <time>2023-10-29T19:18:19Z</time>
      </trkpt>
      <trkpt lat="47.60206" lon="-1.52723">
        <ele>27</ele>
        <time>2023-10-29T19:18:44Z</time>
      </trkpt>
      <trkpt lat="47.60187" lon="-1.52723">
        <ele>28</ele>
        <time>2023-10-29T19:19:10Z</time>
      </trkpt>
      <trkpt lat="47.60132" lon="-1.52733">
        <ele>27</ele>
        <time>2023-10-29T19:20:24Z</time>
      </trkpt>
      <trkpt lat="47.60121" lon="-1.52711">
        <ele>28</ele>
        <time>2023-10-29T19:20:48Z</time>
      </trkpt>
      <trkpt lat="47.6013" lon="-1.52688">
        <ele>29</ele>
        <time>2023-10-29T19:21:12Z</time>
      </trkpt>
      <trkpt lat="47.60115" lon="-1.52673">
        <ele>30</ele>
        <time>2023-10-29T19:21:36Z</time>
      </trkpt>
      <trkpt lat="47.6006" lon="-1.52675">
        <ele>30</ele>
        <time>2023-10-29T19:22:50Z</time>
      </trkpt>
      <trkpt lat="47.60042" lon="-1.52669">
        <ele>31</ele>
        <time>2023-10-29T19:23:14Z</time>
      </trkpt>
      <trkpt lat="47.60023" lon="-1.52669">
        <ele>31</ele>
        <time>2023-10-29T19:23:40Z</time>
      </trkpt>
      <trkpt lat="47.60005" lon="-1.52664">
        <ele>31</ele>
        <time>2023-10-29T19:24:04Z</time>
      </trkpt>
      <trkpt lat="47.59987" lon="-1.52666">
        <ele>31</ele>
        <time>2023-10-29T19:24:28Z</time>
      </trkpt>
      <trkpt lat="47.59969" lon="-1.52673">
        <ele>30</ele>
        <time>2023-10-29T19:24:53Z</time>
      </trkpt>
      <trkpt lat="47.59952" lon="-1.52683">
        <ele>29</ele>
        <time>2023-10-29T19:25:18Z</time>
      </trkpt>
      <trkpt lat="47.59934" lon="-1.52688">
        <ele>28</ele>
        <time>2023-10-29T19:25:42Z</time>
      </trkpt>
      <trkpt lat="47.59917" lon="-1.52699">
        <ele>28</ele>
        <time>2023-10-29T19:26:07Z</time>
      </trkpt>
      <trkpt lat="47.59902" lon="-1.52715">
        <ele>28</ele>
        <time>2023-10-29T19:26:31Z</time>
      </trkpt>
      <trkpt lat="47.59868" lon="-1.52736">
        <ele>30</ele>
        <time>2023-10-29T19:27:21Z</time>
      </trkpt>
      <trkpt lat="47.5982" lon="-1.52775">
        <ele>33</ele>
        <time>2023-10-29T19:28:34Z</time>
      </trkpt>
      <trkpt lat="47.5977" lon="-1.52811">
        <ele>34</ele>
        <time>2023-10-29T19:29:48Z</time>
      </trkpt>
      <trkpt lat="47.59737" lon="-1.52841">
        <ele>36</ele>
        <time>2023-10-29T19:30:39Z</time>
      </trkpt>
      <trkpt lat="47.59686" lon="-1.52878">
        <ele>36</ele>
        <time>2023-10-29T19:31:55Z</time>
      </trkpt>
      <trkpt lat="47.59672" lon="-1.52894">
        <ele>37</ele>
        <time>2023-10-29T19:32:19Z</time>
      </trkpt>
      <trkpt lat="47.59654" lon="-1.52905">
        <ele>36</ele>
        <time>2023-10-29T19:32:45Z</time>
      </trkpt>
      <trkpt lat="47.59588" lon="-1.52957">
        <ele>33</ele>
        <time>2023-10-29T19:34:24Z</time>
      </trkpt>
      <trkpt lat="47.59578" lon="-1.5298">
        <ele>33</ele>
        <time>2023-10-29T19:34:49Z</time>
      </trkpt>
      <trkpt lat="47.59582" lon="-1.53036">
        <ele>33</ele>
        <time>2023-10-29T19:35:40Z</time>
      </trkpt>
      <trkpt lat="47.59598" lon="-1.53174">
        <ele>34</ele>
        <time>2023-10-29T19:37:46Z</time>
      </trkpt>
      <trkpt lat="47.59612" lon="-1.53253">
        <ele>34</ele>
        <time>2023-10-29T19:38:59Z</time>
      </trkpt>
      <trkpt lat="47.59595" lon="-1.53261">
        <ele>34</ele>
        <time>2023-10-29T19:39:23Z</time>
      </trkpt>
      <trkpt lat="47.59577" lon="-1.53252">
        <ele>34</ele>
        <time>2023-10-29T19:39:48Z</time>
      </trkpt>
      <trkpt lat="47.59558" lon="-1.53251">
        <ele>33</ele>
        <time>2023-10-29T19:40:14Z</time>
      </trkpt>
      <trkpt lat="47.59489" lon="-1.53292">
        <ele>32</ele>
        <time>2023-10-29T19:41:53Z</time>
      </trkpt>
      <trkpt lat="47.59438" lon="-1.53327">
        <ele>33</ele>
        <time>2023-10-29T19:43:08Z</time>
      </trkpt>
      <trkpt lat="47.59426" lon="-1.53347">
        <ele>35</ele>
        <time>2023-10-29T19:43:32Z</time>
      </trkpt>
      <trkpt lat="47.59431" lon="-1.53402">
        <ele>40</ele>
        <time>2023-10-29T19:44:22Z</time>
      </trkpt>
      <trkpt lat="47.59425" lon="-1.5354">
        <ele>41</ele>
        <time>2023-10-29T19:46:26Z</time>
      </trkpt>
      <trkpt lat="47.59433" lon="-1.53595">
        <ele>40</ele>
        <time>2023-10-29T19:47:17Z</time>
      </trkpt>
      <trkpt lat="47.5943" lon="-1.53649">
        <ele>41</ele>
        <time>2023-10-29T19:48:06Z</time>
      </trkpt>
      <trkpt lat="47.59432" lon="-1.53703">
        <ele>40</ele>
        <time>2023-10-29T19:48:55Z</time>
      </trkpt>
      <trkpt lat="47.59429" lon="-1.5373">
        <ele>39</ele>
        <time>2023-10-29T19:49:19Z</time>
      </trkpt>
      <trkpt lat="47.5943" lon="-1.53758">
        <ele>38</ele>
        <time>2023-10-29T19:49:44Z</time>
      </trkpt>
      <trkpt lat="47.59426" lon="-1.53784">
        <ele>37</ele>
        <time>2023-10-29T19:50:08Z</time>
      </trkpt>
      <trkpt lat="47.59424" lon="-1.53839">
        <ele>35</ele>
        <time>2023-10-29T19:50:58Z</time>
      </trkpt>
      <trkpt lat="47.59427" lon="-1.54005">
        <ele>32</ele>
        <time>2023-10-29T19:53:27Z</time>
      </trkpt>
      <trkpt lat="47.59424" lon="-1.54033">
        <ele>31</ele>
        <time>2023-10-29T19:53:53Z</time>
      </trkpt>
      <trkpt lat="47.59425" lon="-1.5406">
        <ele>30</ele>
        <time>2023-10-29T19:54:17Z</time>
      </trkpt>
      <trkpt lat="47.59409" lon="-1.54111">
        <ele>29</ele>
        <time>2023-10-29T19:55:08Z</time>
      </trkpt>
      <trkpt lat="47.59398" lon="-1.54132">
        <ele>29</ele>
        <time>2023-10-29T19:55:32Z</time>
      </trkpt>
      <trkpt lat="47.59402" lon="-1.54159">
        <ele>28</ele>
        <time>2023-10-29T19:55:57Z</time>
      </trkpt>
      <trkpt lat="47.59441" lon="-1.54217">
        <ele>27</ele>
        <time>2023-10-29T19:57:10Z</time>
      </trkpt>
      <trkpt lat="47.59461" lon="-1.54263">
        <ele>26</ele>
        <time>2023-10-29T19:58:00Z</time>
      </trkpt>
      <trkpt lat="47.59485" lon="-1.54305">
        <ele>26</ele>
        <time>2023-10-29T19:58:49Z</time>
      </trkpt>
      <trkpt lat="47.59507" lon="-1.5435">
        <ele>25</ele>
        <time>2023-10-29T19:59:39Z</time>
      </trkpt>
      <trkpt lat="47.59533" lon="-1.54389">
        <ele>25</ele>
        <time>2023-10-29T20:00:29Z</time>
      </trkpt>
      <trkpt lat="47.59589" lon="-1.54497">
        <ele>26</ele>
        <time>2023-10-29T20:02:31Z</time>
      </trkpt>
      <trkpt lat="47.59576" lon="-1.54518">
        <ele>26</ele>
        <time>2023-10-29T20:02:57Z</time>
      </trkpt>
      <trkpt lat="47.5956" lon="-1.5453">
        <ele>25</ele>
        <time>2023-10-29T20:03:21Z</time>
      </trkpt>
      <trkpt lat="47.59545" lon="-1.54546">
        <ele>25</ele>
        <time>2023-10-29T20:03:45Z</time>
      </trkpt>
      <trkpt lat="47.59528" lon="-1.54554">
        <ele>25</ele>
        <time>2023-10-29T20:04:09Z</time>
      </trkpt>
      <trkpt lat="47.59511" lon="-1.54566">
        <ele>25</ele>
        <time>2023-10-29T20:04:34Z</time>
      </trkpt>
      <trkpt lat="47.59429" lon="-1.54633">
        <ele>26</ele>
        <time>2023-10-29T20:06:39Z</time>
      </trkpt>
      <trkpt lat="47.59379" lon="-1.54669">
        <ele>26</ele>
        <time>2023-10-29T20:07:53Z</time>
      </trkpt>
      <trkpt lat="47.5933" lon="-1.54711">
        <ele>25</ele>
        <time>2023-10-29T20:09:09Z</time>
      </trkpt>
      <trkpt lat="47.59311" lon="-1.54758">
        <ele>25</ele>
        <time>2023-10-29T20:09:58Z</time>
      </trkpt>
      <trkpt lat="47.593" lon="-1.54779">
        <ele>25</ele>
        <time>2023-10-29T20:10:22Z</time>
      </trkpt>
      <trkpt lat="47.59264" lon="-1.54796">
        <ele>24</ele>
        <time>2023-10-29T20:11:13Z</time>
      </trkpt>
      <trkpt lat="47.59227" lon="-1.54806">
        <ele>24</ele>
        <time>2023-10-29T20:12:03Z</time>
      </trkpt>
      <trkpt lat="47.5921" lon="-1.54816">
        <ele>24</ele>
        <time>2023-10-29T20:12:27Z</time>
      </trkpt>
      <trkpt lat="47.59193" lon="-1.5483">
        <ele>24</ele>
        <time>2023-10-29T20:12:53Z</time>
      </trkpt>
      <trkpt lat="47.59132" lon="-1.54892">
        <ele>25</ele>
        <time>2023-10-29T20:14:32Z</time>
      </trkpt>
      <trkpt lat="47.59113" lon="-1.549">
        <ele>26</ele>
        <time>2023-10-29T20:14:58Z</time>
      </trkpt>
      <trkpt lat="47.59032" lon="-1.54966">
        <ele>26</ele>
        <time>2023-10-29T20:17:02Z</time>
      </trkpt>
      <trkpt lat="47.58997" lon="-1.54988">
        <ele>26</ele>
        <time>2023-10-29T20:17:52Z</time>
      </trkpt>
      <trkpt lat="47.58923" lon="-1.55007">
        <ele>25</ele>
        <time>2023-10-29T20:19:33Z</time>
      </trkpt>
      <trkpt lat="47.58907" lon="-1.5502">
        <ele>25</ele>
        <time>2023-10-29T20:19:57Z</time>
      </trkpt>
      <trkpt lat="47.58889" lon="-1.55016">
        <ele>26</ele>
        <time>2023-10-29T20:20:21Z</time>
      </trkpt>
      <trkpt lat="47.5887" lon="-1.55016">
        <ele>26</ele>
        <time>2023-10-29T20:20:47Z</time>
      </trkpt>
      <trkpt lat="47.58833" lon="-1.55024">
        <ele>26</ele>
        <time>2023-10-29T20:21:36Z</time>
      </trkpt>
      <trkpt lat="47.58816" lon="-1.5503">
        <ele>26</ele>
        <time>2023-10-29T20:22:00Z</time>
      </trkpt>
      <trkpt lat="47.5873" lon="-1.55083">
        <ele>28</ele>
        <time>2023-10-29T20:24:04Z</time>
      </trkpt>
      <trkpt lat="47.58694" lon="-1.551">
        <ele>28</ele>
        <time>2023-10-29T20:24:54Z</time>
      </trkpt>
      <trkpt lat="47.58558" lon="-1.55188">
        <ele>30</ele>
        <time>2023-10-29T20:28:12Z</time>
      </trkpt>
      <trkpt lat="47.58522" lon="-1.55205">
        <ele>31</ele>
        <time>2023-10-29T20:29:03Z</time>
      </trkpt>
      <trkpt lat="47.58471" lon="-1.55236">
        <ele>33</ele>
        <time>2023-10-29T20:30:16Z</time>
      </trkpt>
      <trkpt lat="47.58457" lon="-1.55254">
        <ele>33</ele>
        <time>2023-10-29T20:30:41Z</time>
      </trkpt>
      <trkpt lat="47.58442" lon="-1.55303">
        <ele>32</ele>
        <time>2023-10-29T20:31:30Z</time>
      </trkpt>
      <trkpt lat="47.58423" lon="-1.55351">
        <ele>32</ele>
        <time>2023-10-29T20:32:20Z</time>
      </trkpt>
      <trkpt lat="47.58381" lon="-1.55443">
        <ele>32</ele>
        <time>2023-10-29T20:34:00Z</time>
      </trkpt>
      <trkpt lat="47.58369" lon="-1.55464">
        <ele>33</ele>
        <time>2023-10-29T20:34:24Z</time>
      </trkpt>
      <trkpt lat="47.58352" lon="-1.55475">
        <ele>34</ele>
        <time>2023-10-29T20:34:49Z</time>
      </trkpt>
      <trkpt lat="47.58334" lon="-1.55481">
        <ele>35</ele>
        <time>2023-10-29T20:35:14Z</time>
      </trkpt>
      <trkpt lat="47.58281" lon="-1.55507">
        <ele>37</ele>
        <time>2023-10-29T20:36:28Z</time>
      </trkpt>
      <trkpt lat="47.58139" lon="-1.55583">
        <ele>37</ele>
        <time>2023-10-29T20:39:50Z</time>
      </trkpt>
      <trkpt lat="47.58103" lon="-1.55595">
        <ele>37</ele>
        <time>2023-10-29T20:40:39Z</time>
      </trkpt>
      <trkpt lat="47.58067" lon="-1.55602">
        <ele>38</ele>
        <time>2023-10-29T20:41:27Z</time>
      </trkpt>
      <trkpt lat="47.58011" lon="-1.55593">
        <ele>36</ele>
        <time>2023-10-29T20:42:43Z</time>
      </trkpt>
      <trkpt lat="47.57975" lon="-1.5558">
        <ele>37</ele>
        <time>2023-10-29T20:43:32Z</time>
      </trkpt>
      <trkpt lat="47.57939" lon="-1.55571">
        <ele>38</ele>
        <time>2023-10-29T20:44:21Z</time>
      </trkpt>
      <trkpt lat="47.5792" lon="-1.55569">
        <ele>38</ele>
        <time>2023-10-29T20:44:46Z</time>
      </trkpt>
      <trkpt lat="47.57866" lon="-1.55551">
        <ele>37</ele>
        <time>2023-10-29T20:46:00Z</time>
      </trkpt>
      <trkpt lat="47.57851" lon="-1.55533">
        <ele>38</ele>
        <time>2023-10-29T20:46:26Z</time>
      </trkpt>
      <trkpt lat="47.57836" lon="-1.5552">
        <ele>38</ele>
        <time>2023-10-29T20:46:49Z</time>
      </trkpt>
      <trkpt lat="47.57766" lon="-1.55481">
        <ele>35</ele>
        <time>2023-10-29T20:48:29Z</time>
      </trkpt>
      <trkpt lat="47.57732" lon="-1.55459">
        <ele>34</ele>
        <time>2023-10-29T20:49:18Z</time>
      </trkpt>
      <trkpt lat="47.57678" lon="-1.55441">
        <ele>33</ele>
        <time>2023-10-29T20:50:32Z</time>
      </trkpt>
      <trkpt lat="47.57643" lon="-1.55426">
        <ele>33</ele>
        <time>2023-10-29T20:51:21Z</time>
      </trkpt>
      <trkpt lat="47.57627" lon="-1.55412">
        <ele>33</ele>
        <time>2023-10-29T20:51:46Z</time>
      </trkpt>
      <trkpt lat="47.57556" lon="-1.55377">
        <ele>33</ele>
        <time>2023-10-29T20:53:25Z</time>
      </trkpt>
      <trkpt lat="47.57524" lon="-1.55347">
        <ele>32</ele>
        <time>2023-10-29T20:54:16Z</time>
      </trkpt>
      <trkpt lat="47.5751" lon="-1.55328">
        <ele>31</ele>
        <time>2023-10-29T20:54:41Z</time>
      </trkpt>
      <trkpt lat="47.57489" lon="-1.55283">
        <ele>31</ele>
        <time>2023-10-29T20:55:31Z</time>
      </trkpt>
      <trkpt lat="47.57484" lon="-1.55258">
        <ele>31</ele>
        <time>2023-10-29T20:55:54Z</time>
      </trkpt>
      <trkpt lat="47.57491" lon="-1.55092">
        <ele>33</ele>
        <time>2023-10-29T20:58:24Z</time>
      </trkpt>
      <trkpt lat="47.57489" lon="-1.55065">
        <ele>33</ele>
        <time>2023-10-29T20:58:48Z</time>
      </trkpt>
      <trkpt lat="47.5749" lon="-1.54983">
        <ele>33</ele>
        <time>2023-10-29T21:00:02Z</time>
      </trkpt>
      <trkpt lat="47.57493" lon="-1.54955">
        <ele>32</ele>
        <time>2023-10-29T21:00:28Z</time>
      </trkpt>
      <trkpt lat="47.57489" lon="-1.54928">
        <ele>32</ele>
        <time>2023-10-29T21:00:52Z</time>
      </trkpt>
      <trkpt lat="47.57471" lon="-1.54921">
        <ele>32</ele>
        <time>2023-10-29T21:01:17Z</time>
      </trkpt>
      <trkpt lat="47.57434" lon="-1.54913">
        <ele>32</ele>
        <time>2023-10-29T21:02:07Z</time>
      </trkpt>
      <trkpt lat="47.57418" lon="-1.54899">
        <ele>32</ele>
        <time>2023-10-29T21:02:32Z</time>
      </trkpt>
      <trkpt lat="47.57349" lon="-1.54673">
        <ele>31</ele>
        <time>2023-10-29T21:06:15Z</time>
      </trkpt>
      <trkpt lat="47.57344" lon="-1.54646">
        <ele>32</ele>
        <time>2023-10-29T21:06:41Z</time>
      </trkpt>
      <trkpt lat="47.5731" lon="-1.5452">
        <ele>32</ele>
        <time>2023-10-29T21:08:43Z</time>
      </trkpt>
      <trkpt lat="47.57294" lon="-1.5447">
        <ele>32</ele>
        <time>2023-10-29T21:09:33Z</time>
      </trkpt>
      <trkpt lat="47.57289" lon="-1.54444">
        <ele>32</ele>
        <time>2023-10-29T21:09:57Z</time>
      </trkpt>
      <trkpt lat="47.57279" lon="-1.5442">
        <ele>32</ele>
        <time>2023-10-29T21:10:22Z</time>
      </trkpt>
      <trkpt lat="47.57235" lon="-1.54365">
        <ele>33</ele>
        <time>2023-10-29T21:11:39Z</time>
      </trkpt>
      <trkpt lat="47.57222" lon="-1.54345">
        <ele>34</ele>
        <time>2023-10-29T21:12:04Z</time>
      </trkpt>
      <trkpt lat="47.57163" lon="-1.54277">
        <ele>35</ele>
        <time>2023-10-29T21:13:44Z</time>
      </trkpt>
      <trkpt lat="47.57069" lon="-1.54189">
        <ele>35</ele>
        <time>2023-10-29T21:16:12Z</time>
      </trkpt>
      <trkpt lat="47.57052" lon="-1.54177">
        <ele>35</ele>
        <time>2023-10-29T21:16:37Z</time>
      </trkpt>
      <trkpt lat="47.57034" lon="-1.54171">
        <ele>35</ele>
        <time>2023-10-29T21:17:02Z</time>
      </trkpt>
      <trkpt lat="47.56998" lon="-1.54165">
        <ele>35</ele>
        <time>2023-10-29T21:17:50Z</time>
      </trkpt>
      <trkpt lat="47.5683" lon="-1.54158">
        <ele>35</ele>
        <time>2023-10-29T21:21:35Z</time>
      </trkpt>
      <trkpt lat="47.56812" lon="-1.54155">
        <ele>35</ele>
        <time>2023-10-29T21:21:59Z</time>
      </trkpt>
      <trkpt lat="47.56794" lon="-1.54157">
        <ele>36</ele>
        <time>2023-10-29T21:22:23Z</time>
      </trkpt>
      <trkpt lat="47.56775" lon="-1.54155">
        <ele>36</ele>
        <time>2023-10-29T21:22:48Z</time>
      </trkpt>
      <trkpt lat="47.56766" lon="-1.54132">
        <ele>37</ele>
        <time>2023-10-29T21:23:12Z</time>
      </trkpt>
      <trkpt lat="47.56769" lon="-1.5405">
        <ele>38</ele>
        <time>2023-10-29T21:24:26Z</time>
      </trkpt>
      <trkpt lat="47.56767" lon="-1.5394">
        <ele>37</ele>
        <time>2023-10-29T21:26:05Z</time>
      </trkpt>
      <trkpt lat="47.56778" lon="-1.53804">
        <ele>38</ele>
        <time>2023-10-29T21:28:09Z</time>
      </trkpt>
      <trkpt lat="47.56778" lon="-1.53776">
        <ele>38</ele>
        <time>2023-10-29T21:28:34Z</time>
      </trkpt>
      <trkpt lat="47.56767" lon="-1.53609">
        <ele>37</ele>
        <time>2023-10-29T21:31:05Z</time>
      </trkpt>
      <trkpt lat="47.56762" lon="-1.53582">
        <ele>37</ele>
        <time>2023-10-29T21:31:30Z</time>
      </trkpt>
      <trkpt lat="47.56743" lon="-1.53535">
        <ele>38</ele>
        <time>2023-10-29T21:32:19Z</time>
      </trkpt>
      <trkpt lat="47.56683" lon="-1.53362">
        <ele>40</ele>
        <time>2023-10-29T21:35:14Z</time>
      </trkpt>
      <trkpt lat="47.56646" lon="-1.53269">
        <ele>38</ele>
        <time>2023-10-29T21:36:52Z</time>
      </trkpt>
      <trkpt lat="47.5663" lon="-1.53219">
        <ele>38</ele>
        <time>2023-10-29T21:37:42Z</time>
      </trkpt>
      <trkpt lat="47.5662" lon="-1.53195">
        <ele>38</ele>
        <time>2023-10-29T21:38:07Z</time>
      </trkpt>
      <trkpt lat="47.56607" lon="-1.53176">
        <ele>38</ele>
        <time>2023-10-29T21:38:31Z</time>
      </trkpt>
      <trkpt lat="47.56589" lon="-1.53166">
        <ele>39</ele>
        <time>2023-10-29T21:38:57Z</time>
      </trkpt>
      <trkpt lat="47.56535" lon="-1.53151">
        <ele>39</ele>
        <time>2023-10-29T21:40:10Z</time>
      </trkpt>
      <trkpt lat="47.56531" lon="-1.53177">
        <ele>39</ele>
        <time>2023-10-29T21:40:34Z</time>
      </trkpt>
      <trkpt lat="47.56537" lon="-1.53259">
        <ele>40</ele>
        <time>2023-10-29T21:41:49Z</time>
      </trkpt>
      <trkpt lat="47.56533" lon="-1.53287">
        <ele>41</ele>
        <time>2023-10-29T21:42:14Z</time>
      </trkpt>
      <trkpt lat="47.56513" lon="-1.53393">
        <ele>41</ele>
        <time>2023-10-29T21:43:53Z</time>
      </trkpt>
      <trkpt lat="47.5651" lon="-1.53421">
        <ele>41</ele>
        <time>2023-10-29T21:44:19Z</time>
      </trkpt>
      <trkpt lat="47.56488" lon="-1.53524">
        <ele>43</ele>
        <time>2023-10-29T21:45:56Z</time>
      </trkpt>
      <trkpt lat="47.56457" lon="-1.53653">
        <ele>46</ele>
        <time>2023-10-29T21:48:00Z</time>
      </trkpt>
      <trkpt lat="47.56447" lon="-1.53675">
        <ele>47</ele>
        <time>2023-10-29T21:48:23Z</time>
      </trkpt>
      <trkpt lat="47.56428" lon="-1.5368">
        <ele>48</ele>
        <time>2023-10-29T21:48:49Z</time>
      </trkpt>
      <trkpt lat="47.56375" lon="-1.53663">
        <ele>48</ele>
        <time>2023-10-29T21:50:02Z</time>
      </trkpt>
      <trkpt lat="47.5636" lon="-1.53647">
        <ele>48</ele>
        <time>2023-10-29T21:50:26Z</time>
      </trkpt>
      <trkpt lat="47.56326" lon="-1.53623">
        <ele>48</ele>
        <time>2023-10-29T21:51:16Z</time>
      </trkpt>
      <trkpt lat="47.56308" lon="-1.53625">
        <ele>49</ele>
        <time>2023-10-29T21:51:41Z</time>
      </trkpt>
      <trkpt lat="47.56293" lon="-1.5361">
        <ele>48</ele>
        <time>2023-10-29T21:52:05Z</time>
      </trkpt>
      <trkpt lat="47.56274" lon="-1.53605">
        <ele>49</ele>
        <time>2023-10-29T21:52:30Z</time>
      </trkpt>
      <trkpt lat="47.5624" lon="-1.53582">
        <ele>48</ele>
        <time>2023-10-29T21:53:20Z</time>
      </trkpt>
      <trkpt lat="47.56204" lon="-1.53568">
        <ele>48</ele>
        <time>2023-10-29T21:54:10Z</time>
      </trkpt>
      <trkpt lat="47.56187" lon="-1.53576">
        <ele>48</ele>
        <time>2023-10-29T21:54:34Z</time>
      </trkpt>
      <trkpt lat="47.56155" lon="-1.53604">
        <ele>49</ele>
        <time>2023-10-29T21:55:23Z</time>
      </trkpt>
      <trkpt lat="47.56137" lon="-1.53609">
        <ele>50</ele>
        <time>2023-10-29T21:55:48Z</time>
      </trkpt>
      <trkpt lat="47.56084" lon="-1.53631">
        <ele>51</ele>
        <time>2023-10-29T21:57:01Z</time>
      </trkpt>
      <trkpt lat="47.56065" lon="-1.53624">
        <ele>51</ele>
        <time>2023-10-29T21:57:27Z</time>
      </trkpt>
      <trkpt lat="47.56031" lon="-1.53646">
        <ele>52</ele>
        <time>2023-10-29T21:58:17Z</time>
      </trkpt>
      <trkpt lat="47.56013" lon="-1.53651">
        <ele>52</ele>
        <time>2023-10-29T21:58:41Z</time>
      </trkpt>
      <trkpt lat="47.55995" lon="-1.5366">
        <ele>52</ele>
        <time>2023-10-29T21:59:07Z</time>
      </trkpt>
      <trkpt lat="47.55979" lon="-1.53674">
        <ele>53</ele>
        <time>2023-10-29T21:59:31Z</time>
      </trkpt>
      <trkpt lat="47.55962" lon="-1.53682">
        <ele>54</ele>
        <time>2023-10-29T21:59:55Z</time>
      </trkpt>
      <trkpt lat="47.5595" lon="-1.53703">
        <ele>54</ele>
        <time>2023-10-29T22:00:20Z</time>
      </trkpt>
      <trkpt lat="47.55948" lon="-1.5373">
        <ele>55</ele>
        <time>2023-10-29T22:00:45Z</time>
      </trkpt>
      <trkpt lat="47.55959" lon="-1.53752">
        <ele>55</ele>
        <time>2023-10-29T22:01:09Z</time>
      </trkpt>
      <trkpt lat="47.55957" lon="-1.53779">
        <ele>55</ele>
        <time>2023-10-29T22:01:34Z</time>
      </trkpt>
      <trkpt lat="47.55952" lon="-1.53805">
        <ele>56</ele>
        <time>2023-10-29T22:01:58Z</time>
      </trkpt>
      <trkpt lat="47.55954" lon="-1.53833">
        <ele>56</ele>
        <time>2023-10-29T22:02:23Z</time>
      </trkpt>
      <trkpt lat="47.5595" lon="-1.53917">
        <ele>57</ele>
        <time>2023-10-29T22:03:39Z</time>
      </trkpt>
      <trkpt lat="47.55951" lon="-1.53943">
        <ele>57</ele>
        <time>2023-10-29T22:04:03Z</time>
      </trkpt>
      <trkpt lat="47.55943" lon="-1.54052">
        <ele>57</ele>
        <time>2023-10-29T22:05:41Z</time>
      </trkpt>
      <trkpt lat="47.55949" lon="-1.54107">
        <ele>57</ele>
        <time>2023-10-29T22:06:32Z</time>
      </trkpt>
      <trkpt lat="47.55942" lon="-1.54159">
        <ele>57</ele>
        <time>2023-10-29T22:07:19Z</time>
      </trkpt>
      <trkpt lat="47.55942" lon="-1.54186">
        <ele>58</ele>
        <time>2023-10-29T22:07:44Z</time>
      </trkpt>
      <trkpt lat="47.55931" lon="-1.54209">
        <ele>59</ele>
        <time>2023-10-29T22:08:09Z</time>
      </trkpt>
      <trkpt lat="47.55914" lon="-1.542">
        <ele>57</ele>
        <time>2023-10-29T22:08:33Z</time>
      </trkpt>
      <trkpt lat="47.55899" lon="-1.54184">
        <ele>57</ele>
        <time>2023-10-29T22:08:58Z</time>
      </trkpt>
      <trkpt lat="47.55825" lon="-1.54173">
        <ele>57</ele>
        <time>2023-10-29T22:10:37Z</time>
      </trkpt>
      <trkpt lat="47.55806" lon="-1.54168">
        <ele>58</ele>
        <time>2023-10-29T22:11:03Z</time>
      </trkpt>
      <trkpt lat="47.55803" lon="-1.54141">
        <ele>59</ele>
        <time>2023-10-29T22:11:27Z</time>
      </trkpt>
      <trkpt lat="47.55803" lon="-1.54113">
        <ele>60</ele>
        <time>2023-10-29T22:11:53Z</time>
      </trkpt>
      <trkpt lat="47.55792" lon="-1.54092">
        <ele>61</ele>
        <time>2023-10-29T22:12:17Z</time>
      </trkpt>
      <trkpt lat="47.55783" lon="-1.54067">
        <ele>61</ele>
        <time>2023-10-29T22:12:42Z</time>
      </trkpt>
      <trkpt lat="47.55769" lon="-1.53986">
        <ele>63</ele>
        <time>2023-10-29T22:13:57Z</time>
      </trkpt>
      <trkpt lat="47.55756" lon="-1.53966">
        <ele>63</ele>
        <time>2023-10-29T22:14:22Z</time>
      </trkpt>
      <trkpt lat="47.55748" lon="-1.53942">
        <ele>62</ele>
        <time>2023-10-29T22:14:46Z</time>
      </trkpt>
      <trkpt lat="47.55751" lon="-1.53888">
        <ele>61</ele>
        <time>2023-10-29T22:15:35Z</time>
      </trkpt>
      <trkpt lat="47.55771" lon="-1.53842">
        <ele>60</ele>
        <time>2023-10-29T22:16:25Z</time>
      </trkpt>
      <trkpt lat="47.55773" lon="-1.53812">
        <ele>60</ele>
        <time>2023-10-29T22:16:52Z</time>
      </trkpt>
      <trkpt lat="47.55772" lon="-1.53757">
        <ele>62</ele>
        <time>2023-10-29T22:17:41Z</time>
      </trkpt>
      <trkpt lat="47.5576" lon="-1.53736">
        <ele>62</ele>
        <time>2023-10-29T22:18:06Z</time>
      </trkpt>
      <trkpt lat="47.55742" lon="-1.53726">
        <ele>63</ele>
        <time>2023-10-29T22:18:32Z</time>
      </trkpt>
      <trkpt lat="47.55724" lon="-1.53728">
        <ele>63</ele>
        <time>2023-10-29T22:18:56Z</time>
      </trkpt>
      <trkpt lat="47.55708" lon="-1.53714">
        <ele>62</ele>
        <time>2023-10-29T22:19:21Z</time>
      </trkpt>
      <trkpt lat="47.55697" lon="-1.53693">
        <ele>62</ele>
        <time>2023-10-29T22:19:44Z</time>
      </trkpt>
      <trkpt lat="47.55679" lon="-1.53685">
        <ele>62</ele>
        <time>2023-10-29T22:20:10Z</time>
      </trkpt>
      <trkpt lat="47.55663" lon="-1.53672">
        <ele>62</ele>
        <time>2023-10-29T22:20:34Z</time>
      </trkpt>
      <trkpt lat="47.55647" lon="-1.53656">
        <ele>61</ele>
        <time>2023-10-29T22:21:00Z</time>
      </trkpt>
      <trkpt lat="47.55618" lon="-1.53618">
        <ele>61</ele>
        <time>2023-10-29T22:21:51Z</time>
      </trkpt>
      <trkpt lat="47.55588" lon="-1.53586">
        <ele>61</ele>
        <time>2023-10-29T22:22:41Z</time>
      </trkpt>
      <trkpt lat="47.55575" lon="-1.53567">
        <ele>61</ele>
        <time>2023-10-29T22:23:05Z</time>
      </trkpt>
      <trkpt lat="47.55573" lon="-1.53539">
        <ele>62</ele>
        <time>2023-10-29T22:23:30Z</time>
      </trkpt>
      <trkpt lat="47.55564" lon="-1.53484">
        <ele>63</ele>
        <time>2023-10-29T22:24:21Z</time>
      </trkpt>
      <trkpt lat="47.55551" lon="-1.53466">
        <ele>63</ele>
        <time>2023-10-29T22:24:45Z</time>
      </trkpt>
      <trkpt lat="47.55543" lon="-1.53441">
        <ele>63</ele>
        <time>2023-10-29T22:25:10Z</time>
      </trkpt>
      <trkpt lat="47.55519" lon="-1.53397">
        <ele>64</ele>
        <time>2023-10-29T22:26:01Z</time>
      </trkpt>
      <trkpt lat="47.55518" lon="-1.53343">
        <ele>64</ele>
        <time>2023-10-29T22:26:50Z</time>
      </trkpt>
      <trkpt lat="47.55491" lon="-1.53307">
        <ele>65</ele>
        <time>2023-10-29T22:27:38Z</time>
      </trkpt>
      <trkpt lat="47.55454" lon="-1.53306">
        <ele>65</ele>
        <time>2023-10-29T22:28:27Z</time>
      </trkpt>
      <trkpt lat="47.55438" lon="-1.53292">
        <ele>66</ele>
        <time>2023-10-29T22:28:52Z</time>
      </trkpt>
      <trkpt lat="47.55428" lon="-1.5327">
        <ele>66</ele>
        <time>2023-10-29T22:29:16Z</time>
      </trkpt>
      <trkpt lat="47.5541" lon="-1.5326">
        <ele>67</ele>
        <time>2023-10-29T22:29:42Z</time>
      </trkpt>
      <trkpt lat="47.55397" lon="-1.53241">
        <ele>68</ele>
        <time>2023-10-29T22:30:06Z</time>
      </trkpt>
    </trkseg>
  </trk>
</gpx>